sensor_id;sensor_type;location;lat;lon;timestamp;pressure;altitude;pressure_sealevel;temperature;humidity
71306;BME280;59097;46.858;18.632;2023-03-13T06:40:23;100672.88;;;3.88;75.50
71306;BME280;59097;46.858;18.632;2023-03-13T06:42:52;100678.69;;;3.81;75.20
71306;BME280;59097;46.858;18.632;2023-03-13T06:45:20;100546.25;;;3.39;75.49
71306;BME280;59097;46.858;18.632;2023-03-13T06:47:50;100624.00;;;3.87;74.63
71306;BME280;59097;46.858;18.632;2023-03-13T06:50:20;100667.72;;;4.15;74.95
71306;BME280;59097;46.858;18.632;2023-03-13T06:52:48;100603.84;;;3.87;74.19
71306;BME280;59097;46.858;18.632;2023-03-13T06:55:19;100647.94;;;4.30;74.12
71306;BME280;59097;46.858;18.632;2023-03-13T06:57:54;100655.91;;;4.38;72.39
71306;BME280;59097;46.858;18.632;2023-03-13T07:00:23;100645.59;;;4.64;73.24
71306;BME280;59097;46.858;18.632;2023-03-13T07:02:52;100672.62;;;4.74;72.00
71306;BME280;59097;46.858;18.632;2023-03-13T07:05:25;100673.03;;;4.79;71.75
71306;BME280;59097;46.858;18.632;2023-03-13T07:07:53;100676.22;;;4.82;70.49
71306;BME280;59097;46.858;18.632;2023-03-13T07:10:23;100675.25;;;5.01;69.95
71306;BME280;59097;46.858;18.632;2023-03-13T07:12:53;100654.66;;;5.24;68.75
71306;BME280;59097;46.858;18.632;2023-03-13T07:15:22;100664.94;;;5.17;68.75
71306;BME280;59097;46.858;18.632;2023-03-13T07:17:56;100641.16;;;5.36;69.28
71306;BME280;59097;46.858;18.632;2023-03-13T07:20:30;100660.31;;;5.64;66.46
71306;BME280;59097;46.858;18.632;2023-03-13T07:23:00;100642.94;;;5.71;66.94
71306;BME280;59097;46.858;18.632;2023-03-13T07:25:32;100568.41;;;5.27;65.39
71306;BME280;59097;46.858;18.632;2023-03-13T07:28:03;100547.59;;;5.51;64.87
71306;BME280;59097;46.858;18.632;2023-03-13T07:30:32;100539.22;;;5.56;64.34
71306;BME280;59097;46.858;18.632;2023-03-13T07:33:01;100670.97;;;6.49;62.35
71306;BME280;59097;46.858;18.632;2023-03-13T07:35:38;100635.47;;;6.27;63.30
71306;BME280;59097;46.858;18.632;2023-03-13T07:38:07;100649.00;;;6.32;62.53
71306;BME280;59097;46.858;18.632;2023-03-13T07:40:36;100585.38;;;5.94;62.65
71306;BME280;59097;46.858;18.632;2023-03-13T07:43:07;100620.22;;;6.13;61.75
71306;BME280;59097;46.858;18.632;2023-03-13T07:45:48;100644.56;;;6.75;62.36
71306;BME280;59097;46.858;18.632;2023-03-13T07:48:51;100590.06;;;6.75;60.86
71306;BME280;59097;46.858;18.632;2023-03-13T07:51:52;100647.31;;;6.99;58.77
71306;BME280;59097;46.858;18.632;2023-03-13T07:54:26;100578.09;;;7.13;58.49
71306;BME280;59097;46.858;18.632;2023-03-13T07:56:54;100631.91;;;7.60;58.84
71306;BME280;59097;46.858;18.632;2023-03-13T07:59:22;100613.44;;;7.52;58.06
71306;BME280;59097;46.858;18.632;2023-03-13T08:01:51;100636.84;;;7.80;57.81
71306;BME280;59097;46.858;18.632;2023-03-13T08:04:20;100622.63;;;8.21;57.27
71306;BME280;59097;46.858;18.632;2023-03-13T08:06:48;100629.38;;;8.15;56.07
71306;BME280;59097;46.858;18.632;2023-03-13T08:09:24;100606.66;;;7.90;56.05
71306;BME280;59097;46.858;18.632;2023-03-13T08:11:59;100626.22;;;8.44;55.54
71306;BME280;59097;46.858;18.632;2023-03-13T08:14:48;100637.47;;;8.38;53.71
71306;BME280;59097;46.858;18.632;2023-03-13T08:17:24;100568.44;;;8.33;55.37
71306;BME280;59097;46.858;18.632;2023-03-13T08:20:04;100546.84;;;8.21;53.42
71306;BME280;59097;46.858;18.632;2023-03-13T08:22:41;100586.94;;;8.72;53.68
71306;BME280;59097;46.858;18.632;2023-03-13T08:25:09;100592.81;;;8.90;53.76
71306;BME280;59097;46.858;18.632;2023-03-13T08:27:39;100564.25;;;9.08;54.02
71306;BME280;59097;46.858;18.632;2023-03-13T08:30:11;100569.84;;;9.13;51.44
71306;BME280;59097;46.858;18.632;2023-03-13T08:32:40;100582.75;;;9.76;50.77
71306;BME280;59097;46.858;18.632;2023-03-13T08:35:09;100541.06;;;10.87;46.48
71306;BME280;59097;46.858;18.632;2023-03-13T08:37:37;100573.94;;;13.86;40.60
71306;BME280;59097;46.858;18.632;2023-03-13T08:40:06;100517.63;;;15.16;36.81
71306;BME280;59097;46.858;18.632;2023-03-13T08:42:38;100568.13;;;14.93;36.93
71306;BME280;59097;46.858;18.632;2023-03-13T08:45:07;100568.16;;;14.86;37.06
71306;BME280;59097;46.858;18.632;2023-03-13T08:47:36;100569.56;;;15.83;34.46
71306;BME280;59097;46.858;18.632;2023-03-13T08:50:07;100556.84;;;14.91;34.63
71306;BME280;59097;46.858;18.632;2023-03-13T08:52:35;100559.31;;;15.55;35.77
71306;BME280;59097;46.858;18.632;2023-03-13T08:55:06;100565.84;;;14.96;36.67
71306;BME280;59097;46.858;18.632;2023-03-13T08:57:34;100555.25;;;16.56;34.05
71306;BME280;59097;46.858;18.632;2023-03-13T09:00:08;100558.47;;;15.61;34.63
71306;BME280;59097;46.858;18.632;2023-03-13T09:02:49;100555.69;;;13.97;37.64
71306;BME280;59097;46.858;18.632;2023-03-13T09:05:20;100534.53;;;14.08;39.04
71306;BME280;59097;46.858;18.632;2023-03-13T09:07:50;100529.81;;;15.37;36.04
71306;BME280;59097;46.858;18.632;2023-03-13T09:10:24;100517.78;;;12.55;39.64
71306;BME280;59097;46.858;18.632;2023-03-13T09:12:52;100467.16;;;14.26;36.78
71306;BME280;59097;46.858;18.632;2023-03-13T09:15:24;100563.91;;;13.82;38.23
71306;BME280;59097;46.858;18.632;2023-03-13T09:17:57;100550.62;;;15.84;35.68
71306;BME280;59097;46.858;18.632;2023-03-13T09:20:30;100535.87;;;14.50;38.72
71306;BME280;59097;46.858;18.632;2023-03-13T09:23:03;100525.13;;;14.63;37.70
71306;BME280;59097;46.858;18.632;2023-03-13T09:25:32;100543.34;;;14.79;37.10
71306;BME280;59097;46.858;18.632;2023-03-13T09:28:06;100530.06;;;14.60;38.22
71306;BME280;59097;46.858;18.632;2023-03-13T09:30:43;100514.59;;;14.75;38.41
71306;BME280;59097;46.858;18.632;2023-03-13T09:33:12;100501.75;;;13.95;38.84
71306;BME280;59097;46.858;18.632;2023-03-13T09:35:40;100526.78;;;13.54;38.76
71306;BME280;59097;46.858;18.632;2023-03-13T09:38:09;100523.94;;;13.36;40.77
71306;BME280;59097;46.858;18.632;2023-03-13T09:40:46;100526.59;;;13.30;41.91
71306;BME280;59097;46.858;18.632;2023-03-13T09:43:52;100521.25;;;13.49;40.43
71306;BME280;59097;46.858;18.632;2023-03-13T09:49:12;100525.03;;;12.27;43.63
71306;BME280;59097;46.858;18.632;2023-03-13T09:51:49;100522.06;;;12.09;44.81
71306;BME280;59097;46.858;18.632;2023-03-13T09:54:24;100519.56;;;12.01;44.93
71306;BME280;59097;46.858;18.632;2023-03-13T09:57:11;100534.56;;;11.81;45.75
71306;BME280;59097;46.858;18.632;2023-03-13T10:00:24;100515.72;;;11.76;45.60
71306;BME280;59097;46.858;18.632;2023-03-13T10:05:46;100479.19;;;11.84;46.98
71306;BME280;59097;46.858;18.632;2023-03-13T10:08:31;100515.53;;;12.12;45.12
71306;BME280;59097;46.858;18.632;2023-03-13T10:11:08;100500.47;;;12.25;44.68
71306;BME280;59097;46.858;18.632;2023-03-13T10:14:02;100492.34;;;12.40;44.38
71306;BME280;59097;46.858;18.632;2023-03-13T10:16:58;100489.31;;;12.43;44.05
71306;BME280;59097;46.858;18.632;2023-03-13T10:19:38;100491.66;;;12.79;44.81
71306;BME280;59097;46.858;18.632;2023-03-13T10:22:29;100488.06;;;12.39;43.69
71306;BME280;59097;46.858;18.632;2023-03-13T10:25:30;100491.00;;;12.63;43.43
71306;BME280;59097;46.858;18.632;2023-03-13T10:27:59;100490.44;;;12.75;43.48
71306;BME280;59097;46.858;18.632;2023-03-13T10:30:34;100479.41;;;13.04;43.57
71306;BME280;59097;46.858;18.632;2023-03-13T10:35:36;100486.00;;;13.14;43.03
71306;BME280;59097;46.858;18.632;2023-03-13T10:38:09;100476.31;;;12.81;44.58
71306;BME280;59097;46.858;18.632;2023-03-13T10:40:39;100473.53;;;13.28;43.40
71306;BME280;59097;46.858;18.632;2023-03-13T10:43:18;100475.75;;;13.11;42.34
71306;BME280;59097;46.858;18.632;2023-03-13T10:45:50;100473.72;;;13.46;42.91
71306;BME280;59097;46.858;18.632;2023-03-13T10:48:21;100469.84;;;13.49;42.26
71306;BME280;59097;46.858;18.632;2023-03-13T10:50:52;100472.50;;;13.36;42.29
71306;BME280;59097;46.858;18.632;2023-03-13T10:56:13;100474.13;;;13.56;42.39
71306;BME280;59097;46.858;18.632;2023-03-13T10:58:47;100464.69;;;13.67;42.17
71306;BME280;59097;46.858;18.632;2023-03-13T11:01:27;100463.03;;;13.59;41.97
71306;BME280;59097;46.858;18.632;2023-03-13T11:04:18;100457.87;;;13.77;41.76
71306;BME280;59097;46.858;18.632;2023-03-13T11:06:50;100460.59;;;13.64;41.69
71306;BME280;59097;46.858;18.632;2023-03-13T11:09:21;100452.34;;;13.92;41.27
71306;BME280;59097;46.858;18.632;2023-03-13T11:11:53;100397.47;;;13.58;41.47
71306;BME280;59097;46.858;18.632;2023-03-13T11:14:24;100439.16;;;14.04;41.37
71306;BME280;59097;46.858;18.632;2023-03-13T11:20:25;100414.88;;;14.18;41.76
71306;BME280;59097;46.858;18.632;2023-03-13T11:22:59;100421.53;;;14.03;40.65
71306;BME280;59097;46.858;18.632;2023-03-13T11:25:38;100407.03;;;14.30;41.07
71306;BME280;59097;46.858;18.632;2023-03-13T11:28:27;100399.50;;;14.14;41.06
71306;BME280;59097;46.858;18.632;2023-03-13T11:31:08;100398.28;;;14.16;41.45
71306;BME280;59097;46.858;18.632;2023-03-13T11:36:39;100384.06;;;14.35;41.25
71306;BME280;59097;46.858;18.632;2023-03-13T11:54:27;100350.19;;;13.92;43.02
71306;BME280;59097;46.858;18.632;2023-03-13T11:56:55;100328.91;;;13.78;44.22
71306;BME280;59097;46.858;18.632;2023-03-13T11:59:48;100344.44;;;13.95;43.77
71306;BME280;59097;46.858;18.632;2023-03-13T12:02:40;100320.38;;;14.08;42.95
71306;BME280;59097;46.858;18.632;2023-03-13T12:05:14;100339.97;;;14.58;42.52
71306;BME280;59097;46.858;18.632;2023-03-13T12:10:32;100321.28;;;15.07;43.15
71306;BME280;59097;46.858;18.632;2023-03-13T12:13:22;100320.62;;;15.30;41.46
71306;BME280;59097;46.858;18.632;2023-03-13T12:15:58;100303.69;;;15.36;41.44
71306;BME280;59097;46.858;18.632;2023-03-13T12:18:34;100313.88;;;15.27;40.57
71306;BME280;59097;46.858;18.632;2023-03-13T12:27:25;100292.88;;;15.13;41.26
71306;BME280;59097;46.858;18.632;2023-03-13T12:29:57;100282.62;;;15.28;41.82
71306;BME280;59097;46.858;18.632;2023-03-13T12:32:52;100273.34;;;15.30;41.62
71306;BME280;59097;46.858;18.632;2023-03-13T12:35:28;100275.34;;;15.17;41.71
71306;BME280;59097;46.858;18.632;2023-03-13T12:38:22;100264.09;;;14.90;42.16
71306;BME280;59097;46.858;18.632;2023-03-13T12:41:24;100267.03;;;15.25;41.70
71306;BME280;59097;46.858;18.632;2023-03-13T12:43:55;100287.16;;;15.09;42.27
71306;BME280;59097;46.858;18.632;2023-03-13T12:46:46;100240.09;;;15.08;42.31
71306;BME280;59097;46.858;18.632;2023-03-13T12:49:36;100256.34;;;15.25;42.29
71306;BME280;59097;46.858;18.632;2023-03-13T13:01:02;100245.88;;;14.87;42.87
71306;BME280;59097;46.858;18.632;2023-03-13T13:03:59;100261.31;;;15.03;43.49
71306;BME280;59097;46.858;18.632;2023-03-13T13:06:59;100234.38;;;14.86;43.67
71306;BME280;59097;46.858;18.632;2023-03-13T13:09:35;100220.66;;;14.83;42.93
71306;BME280;59097;46.858;18.632;2023-03-13T13:12:21;100212.47;;;14.78;43.29
71306;BME280;59097;46.858;18.632;2023-03-13T13:15:21;100237.63;;;14.88;43.46
71306;BME280;59097;46.858;18.632;2023-03-13T13:20:34;100224.38;;;14.82;43.87
71306;BME280;59097;46.858;18.632;2023-03-13T13:23:36;100215.09;;;15.02;44.36
71306;BME280;59097;46.858;18.632;2023-03-13T13:37:00;100223.41;;;14.94;45.18
71306;BME280;59097;46.858;18.632;2023-03-13T13:39:38;100203.88;;;14.76;44.82
71306;BME280;59097;46.858;18.632;2023-03-13T13:48:25;100185.94;;;14.83;45.28
71306;BME280;59097;46.858;18.632;2023-03-13T13:53:58;100170.59;;;14.78;45.06
71306;BME280;59097;46.858;18.632;2023-03-13T13:56:35;100124.38;;;14.41;45.02
71306;BME280;59097;46.858;18.632;2023-03-13T14:02:16;100173.00;;;14.62;45.48
71306;BME280;59097;46.858;18.632;2023-03-13T14:05:03;100168.66;;;14.67;44.78
71306;BME280;59097;46.858;18.632;2023-03-13T14:07:52;100172.53;;;14.71;45.03
71306;BME280;59097;46.858;18.632;2023-03-13T14:13:23;100156.50;;;14.89;44.78
71306;BME280;59097;46.858;18.632;2023-03-13T14:15:52;100061.88;;;14.31;44.54
71306;BME280;59097;46.858;18.632;2023-03-13T14:18:27;100140.41;;;14.96;44.73
71306;BME280;59097;46.858;18.632;2023-03-13T14:23:37;100140.62;;;14.94;44.09
71306;BME280;59097;46.858;18.632;2023-03-13T14:26:13;100132.09;;;14.86;43.67
71306;BME280;59097;46.858;18.632;2023-03-13T14:28:58;100130.44;;;15.03;44.41
71306;BME280;59097;46.858;18.632;2023-03-13T14:31:36;100130.38;;;15.09;43.82
71306;BME280;59097;46.858;18.632;2023-03-13T14:34:11;100132.16;;;14.97;44.14
71306;BME280;59097;46.858;18.632;2023-03-13T14:36:51;100127.78;;;14.85;44.62
71306;BME280;59097;46.858;18.632;2023-03-13T14:42:11;100117.50;;;14.70;45.21
71306;BME280;59097;46.858;18.632;2023-03-13T14:44:40;100107.94;;;14.63;46.00
71306;BME280;59097;46.858;18.632;2023-03-13T14:47:20;100079.97;;;14.65;45.69
71306;BME280;59097;46.858;18.632;2023-03-13T14:50:00;100111.34;;;14.70;45.79
71306;BME280;59097;46.858;18.632;2023-03-13T14:52:32;100102.88;;;14.73;46.40
71306;BME280;59097;46.858;18.632;2023-03-13T14:55:06;100110.75;;;14.68;46.95
71306;BME280;59097;46.858;18.632;2023-03-13T14:58:04;100101.19;;;14.60;46.69
71306;BME280;59097;46.858;18.632;2023-03-13T15:00:40;100095.41;;;14.63;47.50
71306;BME280;59097;46.858;18.632;2023-03-13T15:05:46;100084.13;;;14.61;46.70
71306;BME280;59097;46.858;18.632;2023-03-13T15:08:20;100076.34;;;14.60;47.08
71306;BME280;59097;46.858;18.632;2023-03-13T15:10:49;100054.78;;;14.43;46.74
71306;BME280;59097;46.858;18.632;2023-03-13T15:15:46;100062.25;;;14.53;47.22
71306;BME280;59097;46.858;18.632;2023-03-13T15:20:55;100051.16;;;14.56;47.28
71306;BME280;59097;46.858;18.632;2023-03-13T15:23:24;100045.81;;;14.37;48.13
71306;BME280;59097;46.858;18.632;2023-03-13T15:25:54;100050.41;;;14.48;47.90
71306;BME280;59097;46.858;18.632;2023-03-13T15:28:22;100050.31;;;14.37;48.54
71306;BME280;59097;46.858;18.632;2023-03-13T15:30:51;100047.09;;;14.28;48.75
71306;BME280;59097;46.858;18.632;2023-03-13T15:33:22;100009.63;;;14.05;48.74
71306;BME280;59097;46.858;18.632;2023-03-13T15:35:51;100048.69;;;14.36;48.42
71306;BME280;59097;46.858;18.632;2023-03-13T15:38:22;100045.94;;;14.24;49.02
71306;BME280;59097;46.858;18.632;2023-03-13T15:40:51;100042.38;;;14.30;48.61
71306;BME280;59097;46.858;18.632;2023-03-13T15:43:21;100019.38;;;14.11;49.29
71306;BME280;59097;46.858;18.632;2023-03-13T15:45:50;100026.38;;;14.12;49.28
71306;BME280;59097;46.858;18.632;2023-03-13T15:48:26;100047.84;;;14.17;49.36
71306;BME280;59097;46.858;18.632;2023-03-13T15:50:58;99998.78;;;14.00;49.15
71306;BME280;59097;46.858;18.632;2023-03-13T15:53:30;100010.69;;;13.98;49.64
71306;BME280;59097;46.858;18.632;2023-03-13T15:56:00;100044.66;;;14.09;49.49
71306;BME280;59097;46.858;18.632;2023-03-13T15:58:28;100056.50;;;13.95;50.51
71306;BME280;59097;46.858;18.632;2023-03-13T16:00:57;99971.25;;;13.45;49.82
71306;BME280;59097;46.858;18.632;2023-03-13T16:03:27;100052.34;;;13.99;49.14
71306;BME280;59097;46.858;18.632;2023-03-13T16:05:56;100049.25;;;14.02;49.02
71306;BME280;59097;46.858;18.632;2023-03-13T16:08:26;100052.19;;;13.94;49.27
71306;BME280;59097;46.858;18.632;2023-03-13T16:11:04;100026.38;;;13.69;49.49
71306;BME280;59097;46.858;18.632;2023-03-13T16:13:32;100049.03;;;13.78;49.74
71306;BME280;59097;46.858;18.632;2023-03-13T16:16:00;100043.56;;;13.73;49.88
71306;BME280;59097;46.858;18.632;2023-03-13T16:18:28;100046.16;;;13.55;50.63
71306;BME280;59097;46.858;18.632;2023-03-13T16:20:56;99973.09;;;13.20;50.55
71306;BME280;59097;46.858;18.632;2023-03-13T16:23:24;100001.03;;;13.36;50.34
71306;BME280;59097;46.858;18.632;2023-03-13T16:25:53;100018.44;;;13.38;50.71
71306;BME280;59097;46.858;18.632;2023-03-13T16:28:20;100024.94;;;13.42;50.80
71306;BME280;59097;46.858;18.632;2023-03-13T16:30:48;100014.78;;;13.33;51.04
71306;BME280;59097;46.858;18.632;2023-03-13T16:33:17;99971.63;;;12.93;51.96
71306;BME280;59097;46.858;18.632;2023-03-13T16:35:47;100007.97;;;13.12;52.34
71306;BME280;59097;46.858;18.632;2023-03-13T16:38:15;100005.53;;;13.04;52.67
71306;BME280;59097;46.858;18.632;2023-03-13T16:40:44;99979.88;;;12.78;53.25
71306;BME280;59097;46.858;18.632;2023-03-13T16:43:12;99993.34;;;12.90;53.01
71306;BME280;59097;46.858;18.632;2023-03-13T16:45:41;100000.69;;;12.88;53.49
71306;BME280;59097;46.858;18.632;2023-03-13T16:48:15;99998.91;;;12.82;53.59
71306;BME280;59097;46.858;18.632;2023-03-13T16:50:44;100000.34;;;12.78;53.76
71306;BME280;59097;46.858;18.632;2023-03-13T16:53:13;99979.94;;;12.65;54.13
71306;BME280;59097;46.858;18.632;2023-03-13T16:55:41;99989.34;;;12.68;54.61
71306;BME280;59097;46.858;18.632;2023-03-13T16:58:11;99990.56;;;12.72;54.44
71306;BME280;59097;46.858;18.632;2023-03-13T17:00:39;100001.47;;;12.63;54.82
71306;BME280;59097;46.858;18.632;2023-03-13T17:03:07;99976.81;;;12.43;54.88
71306;BME280;59097;46.858;18.632;2023-03-13T17:05:35;100005.78;;;12.58;55.24
71306;BME280;59097;46.858;18.632;2023-03-13T17:08:04;100002.53;;;12.49;55.60
71306;BME280;59097;46.858;18.632;2023-03-13T17:10:32;99998.25;;;12.48;55.25
71306;BME280;59097;46.858;18.632;2023-03-13T17:13:01;99992.75;;;12.43;54.88
71306;BME280;59097;46.858;18.632;2023-03-13T17:15:29;100018.50;;;12.49;55.10
71306;BME280;59097;46.858;18.632;2023-03-13T17:17:57;99905.06;;;11.73;55.35
71306;BME280;59097;46.858;18.632;2023-03-13T17:20:28;100025.50;;;12.44;55.22
71306;BME280;59097;46.858;18.632;2023-03-13T17:22:57;99976.78;;;11.92;55.93
71306;BME280;59097;46.858;18.632;2023-03-13T17:25:28;99986.56;;;11.98;56.21
71306;BME280;59097;46.858;18.632;2023-03-13T17:27:56;100019.84;;;12.14;56.45
71306;BME280;59097;46.858;18.632;2023-03-13T17:30:27;100018.59;;;12.23;56.27
71306;BME280;59097;46.858;18.632;2023-03-13T17:32:57;100013.31;;;12.10;56.81
71306;BME280;59097;46.858;18.632;2023-03-13T17:35:29;100007.63;;;12.00;57.30
71306;BME280;59097;46.858;18.632;2023-03-13T17:37:57;100015.19;;;12.03;57.06
71306;BME280;59097;46.858;18.632;2023-03-13T17:40:28;99924.31;;;11.35;57.73
71306;BME280;59097;46.858;18.632;2023-03-13T17:42:56;100007.84;;;11.92;57.56
71306;BME280;59097;46.858;18.632;2023-03-13T17:45:25;100011.31;;;11.86;57.72
71306;BME280;59097;46.858;18.632;2023-03-13T17:47:53;99930.06;;;11.39;57.82
71306;BME280;59097;46.858;18.632;2023-03-13T17:50:26;100011.78;;;11.70;58.46
71306;BME280;59097;46.858;18.632;2023-03-13T17:52:56;100011.13;;;11.55;59.26
71306;BME280;59097;46.858;18.632;2023-03-13T17:55:24;99990.69;;;11.35;59.69
71306;BME280;59097;46.858;18.632;2023-03-13T17:57:52;99983.56;;;11.16;60.63
71306;BME280;59097;46.858;18.632;2023-03-13T18:00:23;100003.97;;;11.22;61.10
71306;BME280;59097;46.858;18.632;2023-03-13T18:02:52;99989.06;;;11.08;61.54
71306;BME280;59097;46.858;18.632;2023-03-13T18:05:21;100004.34;;;11.00;62.46
71306;BME280;59097;46.858;18.632;2023-03-13T18:07:50;100003.31;;;10.94;62.75
71306;BME280;59097;46.858;18.632;2023-03-13T18:10:22;100011.06;;;10.83;63.48
71306;BME280;59097;46.858;18.632;2023-03-13T18:12:51;99997.94;;;10.68;63.82
71306;BME280;59097;46.858;18.632;2023-03-13T18:15:20;100010.97;;;10.56;65.07
71306;BME280;59097;46.858;18.632;2023-03-13T18:17:49;99889.75;;;9.83;64.82
71306;BME280;59097;46.858;18.632;2023-03-13T18:20:25;100002.41;;;10.54;64.86
71306;BME280;59097;46.858;18.632;2023-03-13T18:22:53;99994.59;;;10.46;65.13
71306;BME280;59097;46.858;18.632;2023-03-13T18:25:27;99875.44;;;9.71;65.49
71306;BME280;59097;46.858;18.632;2023-03-13T18:27:56;99967.38;;;10.18;66.04
71306;BME280;59097;46.858;18.632;2023-03-13T18:30:26;99958.13;;;10.07;66.20
71306;BME280;59097;46.858;18.632;2023-03-13T18:32:55;99971.47;;;10.21;65.46
71306;BME280;59097;46.858;18.632;2023-03-13T18:35:23;99987.59;;;10.26;65.61
71306;BME280;59097;46.858;18.632;2023-03-13T18:37:51;99992.13;;;10.32;64.98
71306;BME280;59097;46.858;18.632;2023-03-13T18:40:25;99960.59;;;10.09;65.06
71306;BME280;59097;46.858;18.632;2023-03-13T18:42:53;99978.78;;;10.19;65.17
71306;BME280;59097;46.858;18.632;2023-03-13T18:45:24;99974.84;;;10.08;65.82
71306;BME280;59097;46.858;18.632;2023-03-13T18:47:52;99946.22;;;9.90;65.33
71306;BME280;59097;46.858;18.632;2023-03-13T18:50:22;99976.91;;;10.13;65.06
71306;BME280;59097;46.858;18.632;2023-03-13T18:52:54;99981.13;;;10.00;65.36
71306;BME280;59097;46.858;18.632;2023-03-13T18:55:25;99923.69;;;9.67;65.46
71306;BME280;59097;46.858;18.632;2023-03-13T18:57:54;99966.88;;;10.01;65.16
71306;BME280;59097;46.858;18.632;2023-03-13T19:00:27;99943.94;;;9.81;65.50
71306;BME280;59097;46.858;18.632;2023-03-13T19:02:56;99965.38;;;9.92;65.50
71306;BME280;59097;46.858;18.632;2023-03-13T19:05:25;99957.66;;;9.91;65.42
71306;BME280;59097;46.858;18.632;2023-03-13T19:07:54;99929.03;;;9.73;65.29
71306;BME280;59097;46.858;18.632;2023-03-13T19:10:28;99962.28;;;9.89;65.43
71306;BME280;59097;46.858;18.632;2023-03-13T19:12:57;99959.84;;;9.87;65.50
71306;BME280;59097;46.858;18.632;2023-03-13T19:15:27;99942.81;;;9.62;66.75
71306;BME280;59097;46.858;18.632;2023-03-13T19:18:01;99937.75;;;9.74;65.40
71306;BME280;59097;46.858;18.632;2023-03-13T19:20:31;99943.13;;;9.80;65.56
71306;BME280;59097;46.858;18.632;2023-03-13T19:22:59;99887.28;;;9.41;65.44
71306;BME280;59097;46.858;18.632;2023-03-13T19:25:27;99930.00;;;9.66;65.86
71306;BME280;59097;46.858;18.632;2023-03-13T19:27:56;99930.03;;;9.72;65.25
71306;BME280;59097;46.858;18.632;2023-03-13T19:30:25;99931.03;;;9.71;65.11
71306;BME280;59097;46.858;18.632;2023-03-13T19:32:53;99886.19;;;9.63;64.68
71306;BME280;59097;46.858;18.632;2023-03-13T19:35:24;99876.53;;;9.49;64.25
71306;BME280;59097;46.858;18.632;2023-03-13T19:37:52;99917.84;;;9.84;63.99
71306;BME280;59097;46.858;18.632;2023-03-13T19:40:25;99882.13;;;9.61;64.05
71306;BME280;59097;46.858;18.632;2023-03-13T19:42:57;99826.47;;;9.20;64.40
71306;BME280;59097;46.858;18.632;2023-03-13T19:45:25;99905.59;;;9.77;63.55
71306;BME280;59097;46.858;18.632;2023-03-13T19:47:55;99902.34;;;9.75;63.41
71306;BME280;59097;46.858;18.632;2023-03-13T19:50:24;99888.88;;;9.70;63.21
71306;BME280;59097;46.858;18.632;2023-03-13T19:52:56;99906.44;;;9.77;63.47
71306;BME280;59097;46.858;18.632;2023-03-13T19:55:26;99900.28;;;9.70;63.71
71306;BME280;59097;46.858;18.632;2023-03-13T19:57:56;99738.03;;;8.60;63.76
71306;BME280;59097;46.858;18.632;2023-03-13T20:00:26;99897.03;;;9.68;63.81
71306;BME280;59097;46.858;18.632;2023-03-13T20:02:54;99901.25;;;9.63;64.20
71306;BME280;59097;46.858;18.632;2023-03-13T20:05:24;99864.19;;;9.28;64.64
71306;BME280;59097;46.858;18.632;2023-03-13T20:07:55;99903.84;;;9.56;64.32
71306;BME280;59097;46.858;18.632;2023-03-13T20:10:24;99894.59;;;9.39;64.72
71306;BME280;59097;46.858;18.632;2023-03-13T20:12:52;99856.37;;;9.14;64.66
71306;BME280;59097;46.858;18.632;2023-03-13T20:15:21;99902.91;;;9.36;65.12
71306;BME280;59097;46.858;18.632;2023-03-13T20:17:50;99779.13;;;8.63;64.64
71306;BME280;59097;46.858;18.632;2023-03-13T20:20:21;99892.31;;;9.29;65.48
71306;BME280;59097;46.858;18.632;2023-03-13T20:22:49;99903.50;;;9.31;65.18
71306;BME280;59097;46.858;18.632;2023-03-13T20:25:17;99898.31;;;9.17;65.73
71306;BME280;59097;46.858;18.632;2023-03-13T20:27:46;99890.56;;;9.15;65.76
71306;BME280;59097;46.858;18.632;2023-03-13T20:30:15;99901.84;;;9.03;66.29
71306;BME280;59097;46.858;18.632;2023-03-13T20:32:44;99868.56;;;8.87;66.37
71306;BME280;59097;46.858;18.632;2023-03-13T20:35:26;99868.91;;;8.77;66.47
71306;BME280;59097;46.858;18.632;2023-03-13T20:37:55;99883.38;;;8.81;67.53
71306;BME280;59097;46.858;18.632;2023-03-13T20:40:26;99882.56;;;8.81;67.41
71306;BME280;59097;46.858;18.632;2023-03-13T20:42:54;99863.44;;;8.58;68.23
71306;BME280;59097;46.858;18.632;2023-03-13T20:45:26;99873.44;;;8.62;68.09
71306;BME280;59097;46.858;18.632;2023-03-13T20:47:55;99860.03;;;8.64;68.15
71306;BME280;59097;46.858;18.632;2023-03-13T20:50:24;99859.72;;;8.52;68.38
71306;BME280;59097;46.858;18.632;2023-03-13T20:52:53;99843.75;;;8.60;67.94
71306;BME280;59097;46.858;18.632;2023-03-13T20:55:23;99838.38;;;8.75;67.55
71306;BME280;59097;46.858;18.632;2023-03-13T20:57:51;99829.00;;;8.72;67.60
71306;BME280;59097;46.858;18.632;2023-03-13T21:00:20;99780.09;;;8.34;68.12
71306;BME280;59097;46.858;18.632;2023-03-13T21:02:48;99792.16;;;8.43;68.53
71306;BME280;59097;46.858;18.632;2023-03-13T21:05:17;99806.66;;;8.75;67.02
71306;BME280;59097;46.858;18.632;2023-03-13T21:07:46;99795.16;;;8.61;67.02
71306;BME280;59097;46.858;18.632;2023-03-13T21:10:14;99768.69;;;8.55;66.61
71306;BME280;59097;46.858;18.632;2023-03-13T21:12:45;99801.94;;;8.70;66.97
71306;BME280;59097;46.858;18.632;2023-03-13T21:15:14;99802.66;;;8.58;67.18
71306;BME280;59097;46.858;18.632;2023-03-13T21:17:42;99792.72;;;8.60;66.97
71306;BME280;59097;46.858;18.632;2023-03-13T21:20:11;99786.56;;;8.53;67.11
71306;BME280;59097;46.858;18.632;2023-03-13T21:22:41;99760.97;;;8.32;67.66
71306;BME280;59097;46.858;18.632;2023-03-13T21:25:23;99780.06;;;8.28;68.44
71306;BME280;59097;46.858;18.632;2023-03-13T21:27:52;99772.00;;;8.21;68.50
71306;BME280;59097;46.858;18.632;2023-03-13T21:30:24;99717.22;;;8.02;67.82